Terminal Aerodrome Forecast
Issued by NWS

Home | Current Version | Previous Version | Text Only | Print | Product List | Glossary On
Versions: 1 2 3 4 5 6 7 8 9 10 11 12 13 14 15 16 17 18
000
FTUS46 KOTX 241720
TAFCOE
TAF
KCOE 241720Z 2418/2518 VRB03KT P6SM SCT050 BKN120 OVC200
     FM250000 07005KT P6SM VCSH BKN035 OVC060
     FM250200 06007KT P6SM -RA SCT025 OVC040
     FM250800 04010KT P6SM SCT060 OVC140
      AMD LTD TO CLD AND VIS=

USA.gov is the U.S. government's official web portal to all federal, state and local government web resources and services.